Time;durP1;ratioP1;P1;durP2;ratioP2;P2;SDS_P1;SDS_P2;PMS_P1;PMS_P2;Temp;Humidity;BMP_temperature;BMP_pressure;BME280_temperature;BME280_humidity;BME280_pressure;Samples;Min_cycle;Max_cycle;Signal;HPM_P1;HPM_P2
2020/12/18 00:00:54;;;;;;;114.10;33.03;;;2.90;90.10;;;;;;5044371;28;20120;-71
2020/12/18 00:03:20;;;;;;;106.53;30.85;;;2.90;90.10;;;;;;5047654;28;20132;-70
2020/12/18 00:05:45;;;;;;;96.38;32.15;;;2.90;90.10;;;;;;5046647;28;20053;-71
2020/12/18 00:08:11;;;;;;;107.93;30.88;;;2.90;90.20;;;;;;5043754;28;20428;-71
2020/12/18 00:10:40;;;;;;;96.53;29.67;;;2.90;90.30;;;;;;5040364;28;20467;-70
2020/12/18 00:13:06;;;;;;;92.10;29.83;;;2.90;90.30;;;;;;5050220;28;20032;-71
2020/12/18 00:15:32;;;;;;;106.55;32.55;;;2.90;90.30;;;;;;5044472;28;20029;-71
2020/12/18 00:17:58;;;;;;;104.53;33.90;;;2.90;90.40;;;;;;5042900;28;20374;-71
2020/12/18 00:20:24;;;;;;;107.13;31.90;;;3.00;90.30;;;;;;5037649;28;20025;-72
2020/12/18 00:22:49;;;;;;;101.40;31.73;;;2.90;90.20;;;;;;5046970;28;20494;-72
2020/12/18 00:25:15;;;;;;;98.63;32.42;;;2.90;90.40;;;;;;5044706;28;20124;-74
2020/12/18 00:27:42;;;;;;;87.63;29.42;;;3.00;90.40;;;;;;5036510;28;20025;-73
2020/12/18 00:30:09;;;;;;;93.70;29.05;;;3.00;90.50;;;;;;5033305;28;20030;-72
2020/12/18 00:32:39;;;;;;;92.90;29.50;;;3.00;90.40;;;;;;5043084;28;20041;-72
2020/12/18 00:35:06;;;;;;;97.57;29.27;;;3.10;90.40;;;;;;5051939;28;20028;-72
2020/12/18 00:37:32;;;;;;;103.53;31.27;;;3.00;90.30;;;;;;5052653;28;20025;-72
2020/12/18 00:39:58;;;;;;;100.22;33.72;;;3.00;90.60;;;;;;5050517;28;20028;-72
2020/12/18 00:42:24;;;;;;;101.93;30.85;;;3.10;90.30;;;;;;5049969;28;20386;-72
2020/12/18 00:44:50;;;;;;;108.50;31.85;;;3.10;90.30;;;;;;5050013;28;20021;-72
2020/12/18 00:47:16;;;;;;;96.18;31.13;;;3.00;90.20;;;;;;5042241;28;20035;-71
2020/12/18 00:49:45;;;;;;;106.63;34.38;;;3.00;90.20;;;;;;5047628;28;20029;-72
2020/12/18 00:52:11;;;;;;;94.10;33.17;;;3.00;90.20;;;;;;5050514;28;20047;-72
2020/12/18 00:54:36;;;;;;;85.07;31.45;;;3.00;90.30;;;;;;5036141;28;20025;-72
2020/12/18 00:57:02;;;;;;;92.70;29.67;;;2.90;90.20;;;;;;5039737;28;20051;-72
2020/12/18 00:59:28;;;;;;;101.65;33.97;;;2.90;90.30;;;;;;5050238;28;20037;-72
2020/12/18 01:02:00;;;;;;;87.15;31.95;;;2.90;90.40;;;;;;5043067;28;20037;-73
2020/12/18 01:04:26;;;;;;;88.00;30.33;;;2.90;90.40;;;;;;5042369;28;20191;-72
2020/12/18 01:06:56;;;;;;;80.30;29.38;;;2.90;90.50;;;;;;5043286;28;20025;-71
2020/12/18 01:09:22;;;;;;;77.55;29.83;;;2.90;90.60;;;;;;5047414;28;20368;-72
2020/12/18 01:11:48;;;;;;;88.35;32.30;;;2.90;90.40;;;;;;5038791;28;20060;-73
2020/12/18 01:14:15;;;;;;;79.00;31.33;;;2.90;90.50;;;;;;5039181;28;20095;-72
2020/12/18 01:16:41;;;;;;;81.35;33.70;;;2.90;90.60;;;;;;5046442;28;20037;-72
2020/12/18 01:19:06;;;;;;;80.60;32.83;;;2.90;90.60;;;;;;5039696;28;20036;-72
2020/12/18 01:21:32;;;;;;;88.07;32.15;;;3.00;90.70;;;;;;5048238;28;20052;-71
2020/12/18 01:23:58;;;;;;;96.47;31.52;;;3.00;90.60;;;;;;5050787;28;20033;-71
2020/12/18 01:26:24;;;;;;;87.07;29.27;;;3.00;90.50;;;;;;5044558;28;20037;-71
2020/12/18 01:28:50;;;;;;;91.88;30.70;;;2.90;90.50;;;;;;5058649;28;20033;-72
2020/12/18 01:31:15;;;;;;;92.35;32.15;;;3.00;90.70;;;;;;5058642;28;20032;-70
2020/12/18 01:33:41;;;;;;;86.38;29.05;;;3.00;90.50;;;;;;5052848;28;20133;-72
2020/12/18 01:36:08;;;;;;;97.88;30.92;;;3.00;90.50;;;;;;5051735;28;20515;-71
2020/12/18 01:38:34;;;;;;;92.25;30.15;;;3.00;90.40;;;;;;5059221;28;20049;-69
2020/12/18 01:41:00;;;;;;;91.82;32.83;;;3.00;90.30;;;;;;5058238;28;20033;-70
2020/12/18 01:43:26;;;;;;;105.60;35.45;;;3.00;90.30;;;;;;5057439;28;20478;-72
2020/12/18 01:45:51;;;;;;;91.22;32.30;;;2.90;90.40;;;;;;5043244;28;20103;-71
2020/12/18 01:48:17;;;;;;;92.80;31.02;;;2.90;90.40;;;;;;5051545;28;20147;-72
2020/12/18 01:50:43;;;;;;;92.90;30.88;;;2.90;90.40;;;;;;5049445;28;20029;-71
2020/12/18 01:53:10;;;;;;;107.38;32.95;;;2.90;90.40;;;;;;5051991;28;20036;-70
2020/12/18 01:55:37;;;;;;;94.18;31.05;;;2.90;90.50;;;;;;5051330;28;20029;-71
2020/12/18 01:58:03;;;;;;;88.80;29.55;;;2.90;90.50;;;;;;5042344;28;20028;-71
2020/12/18 02:00:29;;;;;;;99.18;34.58;;;2.90;90.40;;;;;;5046514;28;20360;-71
2020/12/18 02:02:55;;;;;;;99.80;32.25;;;2.90;90.50;;;;;;5047503;28;20049;-72
2020/12/18 02:05:21;;;;;;;101.78;31.70;;;2.90;90.50;;;;;;5053158;28;20414;-72
2020/12/18 02:08:03;;;;;;;91.35;31.40;;;2.80;90.40;;;;;;5049912;28;20025;-72
2020/12/18 02:10:29;;;;;;;101.53;31.45;;;2.80;90.50;;;;;;5041124;28;20061;-72
2020/12/18 02:12:56;;;;;;;106.43;35.60;;;2.90;90.70;;;;;;5041019;28;20416;-71
2020/12/18 02:15:22;;;;;;;112.68;35.97;;;2.90;90.60;;;;;;5035967;28;20526;-75
2020/12/18 02:17:52;;;;;;;107.88;33.47;;;2.90;90.60;;;;;;5043031;28;20029;-72
2020/12/18 02:20:18;;;;;;;106.68;31.45;;;2.90;90.50;;;;;;5038213;28;20095;-71
2020/12/18 02:22:44;;;;;;;106.10;31.45;;;2.80;90.40;;;;;;5039956;28;20040;-71
2020/12/18 02:25:12;;;;;;;106.85;32.88;;;2.80;90.50;;;;;;5038996;28;20102;-71
2020/12/18 02:27:39;;;;;;;102.88;30.98;;;2.80;90.60;;;;;;5054188;28;20029;-72
2020/12/18 02:30:07;;;;;;;93.10;26.90;;;2.80;90.60;;;;;;5053082;28;20042;-72
2020/12/18 02:32:33;;;;;;;102.38;29.90;;;2.80;90.60;;;;;;5043013;28;20036;-72
2020/12/18 02:34:58;;;;;;;112.70;30.75;;;2.80;90.40;;;;;;5047107;28;20025;-72
2020/12/18 02:37:24;;;;;;;100.13;27.52;;;2.80;90.40;;;;;;5054582;28;20032;-71
2020/12/18 02:39:57;;;;;;;84.50;28.77;;;2.70;90.40;;;;;;5042120;28;20468;-71
2020/12/18 02:42:22;;;;;;;97.43;28.42;;;2.70;90.50;;;;;;5038088;28;20025;-72
2020/12/18 02:44:48;;;;;;;81.53;27.13;;;2.70;90.50;;;;;;5050722;28;20036;-72
2020/12/18 02:47:14;;;;;;;97.50;27.75;;;2.70;90.60;;;;;;5041661;28;20032;-72
2020/12/18 02:49:40;;;;;;;84.43;26.42;;;2.70;90.60;;;;;;5045082;28;20494;-71
2020/12/18 02:52:06;;;;;;;86.55;27.25;;;2.70;90.60;;;;;;5046072;28;20074;-71
2020/12/18 02:54:31;;;;;;;96.07;29.30;;;2.70;90.70;;;;;;5054238;28;20029;-70
2020/12/18 02:56:57;;;;;;;81.20;29.73;;;2.70;90.70;;;;;;5045655;28;20033;-72
2020/12/18 02:59:23;;;;;;;85.93;25.90;;;2.70;90.70;;;;;;5048503;28;20486;-71
2020/12/18 03:01:49;;;;;;;78.25;23.98;;;2.70;90.70;;;;;;5050366;28;20399;-70
2020/12/18 03:04:14;;;;;;;80.53;26.30;;;2.70;90.70;;;;;;5051234;28;20048;-71
2020/12/18 03:06:40;;;;;;;106.88;29.35;;;2.70;90.60;;;;;;5047043;28;20028;-71
2020/12/18 03:09:06;;;;;;;86.97;26.27;;;2.70;90.70;;;;;;5054333;28;20037;-71
2020/12/18 03:11:31;;;;;;;87.63;26.65;;;2.70;90.70;;;;;;5046215;28;20029;-72
2020/12/18 03:13:57;;;;;;;82.43;28.02;;;2.80;90.70;;;;;;5040346;28;20025;-71
2020/12/18 03:16:23;;;;;;;80.55;26.80;;;2.80;90.80;;;;;;5050498;28;20025;-71
2020/12/18 03:18:49;;;;;;;86.75;26.77;;;2.80;90.70;;;;;;5053964;28;20472;-71
2020/12/18 03:21:14;;;;;;;85.22;27.80;;;2.80;90.80;;;;;;5044413;28;20026;-72
2020/12/18 03:23:40;;;;;;;90.65;27.80;;;2.80;90.70;;;;;;5040942;28;20486;-70
2020/12/18 03:26:06;;;;;;;115.60;33.17;;;2.80;90.60;;;;;;5047464;28;20067;-71
2020/12/18 03:28:32;;;;;;;94.97;28.15;;;2.80;90.70;;;;;;5053203;28;20037;-71
2020/12/18 03:30:57;;;;;;;99.72;29.02;;;2.70;90.60;;;;;;5048427;28;20053;-70
2020/12/18 03:33:24;;;;;;;97.25;30.92;;;2.70;90.60;;;;;;5044761;28;20032;-70
2020/12/18 03:35:49;;;;;;;81.85;28.52;;;2.70;90.70;;;;;;5045954;28;20095;-71
2020/12/18 03:38:15;;;;;;;83.97;28.70;;;2.70;90.70;;;;;;5052789;28;20050;-73
2020/12/18 03:40:41;;;;;;;80.80;28.27;;;2.70;90.60;;;;;;5056030;28;20033;-71
2020/12/18 03:43:07;;;;;;;84.60;29.27;;;2.70;90.60;;;;;;5043287;28;20041;-71
2020/12/18 03:45:32;;;;;;;100.95;33.08;;;2.70;90.70;;;;;;5045103;28;20025;-70
2020/12/18 03:47:58;;;;;;;78.40;28.67;;;2.70;90.60;;;;;;5040680;28;20383;-71
2020/12/18 03:50:24;;;;;;;77.75;29.67;;;2.70;90.70;;;;;;5060608;28;20029;-71
2020/12/18 03:52:50;;;;;;;90.35;34.88;;;2.70;90.70;;;;;;5049659;28;20108;-71
2020/12/18 03:55:15;;;;;;;89.28;34.95;;;2.60;90.60;;;;;;5042598;28;20107;-72
2020/12/18 03:57:41;;;;;;;75.05;27.45;;;2.60;90.70;;;;;;5039432;28;20026;-72
2020/12/18 04:00:09;;;;;;;76.40;27.23;;;2.60;90.70;;;;;;5044293;28;20029;-71
2020/12/18 04:02:34;;;;;;;70.88;26.33;;;2.60;90.70;;;;;;5044185;28;20080;-71
2020/12/18 04:05:01;;;;;;;67.65;26.45;;;2.60;90.70;;;;;;5045602;28;20029;-71
2020/12/18 04:07:26;;;;;;;73.65;29.08;;;2.60;90.80;;;;;;5049497;28;20115;-72
2020/12/18 04:09:52;;;;;;;75.30;24.58;;;2.60;90.90;;;;;;5051897;28;20145;-71
2020/12/18 04:12:18;;;;;;;73.35;26.58;;;2.60;90.80;;;;;;5042197;28;20468;-72
2020/12/18 04:14:44;;;;;;;61.67;21.27;;;2.70;91.00;;;;;;5040939;28;20035;-71
2020/12/18 04:17:10;;;;;;;68.43;23.48;;;2.70;91.00;;;;;;5038351;28;20028;-72
2020/12/18 04:19:36;;;;;;;61.95;22.58;;;2.70;90.90;;;;;;5048483;28;20039;-69
2020/12/18 04:22:02;;;;;;;65.88;23.13;;;2.70;90.80;;;;;;5049102;28;20032;-70
2020/12/18 04:24:27;;;;;;;65.93;25.05;;;2.70;90.90;;;;;;5036761;28;20073;-73
2020/12/18 04:26:53;;;;;;;64.25;22.52;;;2.80;91.00;;;;;;5042949;28;20028;-70
2020/12/18 04:29:19;;;;;;;64.57;22.90;;;2.80;91.00;;;;;;5049173;28;20106;-71
2020/12/18 04:31:46;;;;;;;50.20;19.90;;;2.80;90.90;;;;;;5049676;28;20566;-72
2020/12/18 04:34:12;;;;;;;60.92;21.60;;;2.80;90.90;;;;;;5050451;28;20082;-70
2020/12/18 04:36:38;;;;;;;63.38;21.20;;;2.80;91.00;;;;;;5050608;28;20029;-70
2020/12/18 04:39:04;;;;;;;69.80;23.17;;;2.80;91.00;;;;;;5045115;28;20040;-71
2020/12/18 04:41:31;;;;;;;65.63;22.40;;;2.80;91.00;;;;;;5046721;28;20037;-72
2020/12/18 04:43:57;;;;;;;63.67;21.60;;;2.80;90.80;;;;;;5041680;28;20037;-71
2020/12/18 04:46:23;;;;;;;67.20;21.63;;;2.80;90.60;;;;;;5044618;28;20029;-71
2020/12/18 04:48:50;;;;;;;66.15;23.08;;;2.70;90.70;;;;;;5050566;28;20100;-71
2020/12/18 04:51:25;;;;;;;67.60;24.83;;;2.70;90.80;;;;;;5049215;28;20028;-71
2020/12/18 04:53:52;;;;;;;82.55;26.48;;;2.60;90.80;;;;;;5038233;28;20036;-71
2020/12/18 04:56:26;;;;;;;74.20;26.90;;;2.60;90.90;;;;;;5035112;28;20021;-70
2020/12/18 04:58:56;;;;;;;59.90;21.58;;;2.60;91.00;;;;;;5036709;28;20025;-73
2020/12/18 05:01:24;;;;;;;79.38;27.50;;;2.60;91.00;;;;;;5038200;28;20068;-71
2020/12/18 05:03:51;;;;;;;72.65;25.88;;;2.60;91.00;;;;;;5041391;28;20076;-71
2020/12/18 05:06:17;;;;;;;68.75;25.10;;;2.50;91.10;;;;;;5049175;28;20120;-73
2020/12/18 05:08:44;;;;;;;61.50;24.17;;;2.50;91.20;;;;;;5046597;28;20029;-71
2020/12/18 05:11:21;;;;;;;67.93;24.85;;;2.60;91.40;;;;;;5039774;28;20116;-70
2020/12/18 05:13:48;;;;;;;61.63;23.23;;;2.60;91.40;;;;;;5042306;28;20025;-71
2020/12/18 05:16:16;;;;;;;59.85;23.95;;;2.60;91.40;;;;;;5035680;28;20072;-71
2020/12/18 05:18:41;;;;;;;63.78;24.30;;;2.70;91.60;;;;;;5044470;28;20021;-71
2020/12/18 05:21:07;;;;;;;83.38;28.10;;;2.70;91.60;;;;;;5037832;28;20113;-69
2020/12/18 05:23:39;;;;;;;104.57;30.77;;;2.80;91.70;;;;;;5043099;28;20033;-70
2020/12/18 05:26:07;;;;;;;101.00;30.42;;;2.80;91.70;;;;;;5036191;28;20029;-71
2020/12/18 05:28:45;;;;;;;106.72;30.55;;;2.90;91.70;;;;;;5050913;28;20035;-74
2020/12/18 05:31:16;;;;;;;91.45;26.30;;;3.00;91.60;;;;;;5042567;28;20433;-74
2020/12/18 05:33:43;;;;;;;78.03;27.60;;;3.00;91.50;;;;;;5039106;28;20086;-75
2020/12/18 05:36:09;;;;;;;72.72;26.08;;;3.00;91.50;;;;;;5042765;28;20026;-76
2020/12/18 05:38:39;;;;;;;60.42;24.08;;;3.00;91.40;;;;;;5049208;28;20025;-73
2020/12/18 05:41:06;;;;;;;55.97;22.98;;;3.00;91.40;;;;;;5054358;28;20049;-73
2020/12/18 05:43:37;;;;;;;52.70;22.88;;;3.00;91.20;;;;;;5060639;28;20036;-75
2020/12/18 05:46:16;;;;;;;49.47;21.50;;;3.00;91.30;;;;;;5062899;28;20152;-74
2020/12/18 05:48:44;;;;;;;50.03;20.88;;;3.00;91.30;;;;;;5042102;28;20021;-75
2020/12/18 05:51:10;;;;;;;41.70;22.17;;;3.00;91.30;;;;;;5045637;28;20029;-74
2020/12/18 05:53:36;;;;;;;39.80;20.40;;;2.90;91.20;;;;;;5055513;28;20044;-73
2020/12/18 05:56:02;;;;;;;46.13;22.73;;;2.90;91.30;;;;;;5044542;28;20029;-74
2020/12/18 05:58:28;;;;;;;43.42;20.38;;;2.90;91.20;;;;;;5045813;28;20061;-74
2020/12/18 06:00:59;;;;;;;44.58;21.55;;;2.90;91.30;;;;;;5057120;28;20064;-75
2020/12/18 06:03:36;;;;;;;44.65;21.50;;;3.00;91.30;;;;;;5055541;28;20112;-75
2020/12/18 06:06:09;;;;;;;47.40;21.38;;;3.00;91.30;;;;;;5042103;28;20025;-74
2020/12/18 06:08:37;;;;;;;57.08;25.13;;;3.00;91.30;;;;;;5044205;28;20162;-73
2020/12/18 06:11:07;;;;;;;50.05;23.45;;;3.00;91.10;;;;;;5040578;28;20029;-72
2020/12/18 06:13:37;;;;;;;57.45;25.83;;;3.10;91.10;;;;;;5050001;28;20040;-71
2020/12/18 06:16:04;;;;;;;51.05;24.90;;;3.00;90.80;;;;;;5045327;28;20156;-73
2020/12/18 06:18:37;;;;;;;71.30;30.42;;;2.90;90.70;;;;;;5040783;28;20025;-72
2020/12/18 06:21:11;;;;;;;81.97;35.05;;;2.90;90.90;;;;;;5046564;28;20033;-73
2020/12/18 06:23:39;;;;;;;81.32;30.35;;;3.00;90.80;;;;;;5045426;28;20115;-73
2020/12/18 06:26:05;;;;;;;57.75;22.92;;;3.00;91.10;;;;;;5042837;28;20025;-73
2020/12/18 06:28:31;;;;;;;56.35;23.50;;;3.10;91.10;;;;;;5051433;28;20033;-72
2020/12/18 06:31:26;;;;;;;43.13;17.80;;;3.10;90.90;;;;;;5044356;28;20021;-72
2020/12/18 06:33:54;;;;;;;42.15;17.85;;;3.10;90.60;;;;;;5048800;28;20030;-72
2020/12/18 06:36:52;;;;;;;41.35;18.25;;;3.00;90.40;;;;;;5041420;28;20031;-73
2020/12/18 06:39:22;;;;;;;81.20;32.35;;;2.90;90.40;;;;;;5047913;28;20109;-71
2020/12/18 06:42:07;;;;;;;95.63;35.33;;;2.80;90.40;;;;;;5042791;28;20027;-72
2020/12/18 06:44:37;;;;;;;89.25;35.67;;;2.70;90.40;;;;;;5043205;28;20479;-72
2020/12/18 06:47:08;;;;;;;92.80;35.38;;;2.70;90.70;;;;;;5037312;28;20044;-67
2020/12/18 06:49:59;;;;;;;100.80;38.67;;;2.80;91.10;;;;;;5045044;28;20083;-72
2020/12/18 06:52:47;;;;;;;74.60;29.52;;;2.90;91.30;;;;;;5047781;28;20030;-70
2020/12/18 06:55:30;;;;;;;65.50;30.42;;;3.00;91.40;;;;;;5047638;28;20036;-77
2020/12/18 06:58:16;;;;;;;63.10;28.45;;;3.00;91.20;;;;;;5039612;28;20026;-69
2020/12/18 07:00:58;;;;;;;64.40;28.00;;;3.10;91.20;;;;;;5045589;28;20491;-73
2020/12/18 07:03:42;;;;;;;63.55;27.40;;;3.10;91.10;;;;;;5039545;28;20057;-70
2020/12/18 07:06:22;;;;;;;64.07;29.02;;;3.10;91.00;;;;;;5043599;28;20032;-70
2020/12/18 07:08:48;;;;;;;77.80;33.97;;;3.10;90.90;;;;;;5042515;28;20028;-68
2020/12/18 07:11:15;;;;;;;74.70;31.90;;;3.10;90.80;;;;;;5041182;28;20041;-67
2020/12/18 07:13:47;;;;;;;77.13;31.92;;;3.00;90.70;;;;;;5040831;28;20036;-69
2020/12/18 07:16:14;;;;;;;71.43;29.90;;;3.00;90.60;;;;;;5041066;28;20025;-68
2020/12/18 07:18:42;;;;;;;79.32;33.42;;;3.00;90.70;;;;;;5042398;28;20040;-66
2020/12/18 07:21:14;;;;;;;73.32;33.53;;;3.10;90.80;;;;;;5049502;28;20039;-68
2020/12/18 07:23:45;;;;;;;59.47;27.25;;;3.10;90.90;;;;;;5038833;28;20040;-67
2020/12/18 07:26:13;;;;;;;47.90;21.90;;;3.10;90.80;;;;;;5046103;28;20031;-67
2020/12/18 07:28:41;;;;;;;47.38;21.77;;;3.10;90.80;;;;;;5044435;28;20025;-68
2020/12/18 07:31:17;;;;;;;47.08;23.08;;;3.10;90.70;;;;;;5041485;28;20030;-67
2020/12/18 07:33:43;;;;;;;44.38;21.67;;;3.10;90.70;;;;;;5042730;28;20112;-68
2020/12/18 07:36:10;;;;;;;43.35;19.75;;;3.20;90.70;;;;;;5046105;28;20438;-68
2020/12/18 07:38:36;;;;;;;40.78;19.70;;;3.20;90.60;;;;;;5041606;28;20032;-67
2020/12/18 07:41:14;;;;;;;39.88;18.90;;;3.20;90.40;;;;;;5040483;28;20025;-67
2020/12/18 07:43:41;;;;;;;38.30;19.05;;;3.20;90.50;;;;;;5045195;28;20086;-67
2020/12/18 07:46:09;;;;;;;39.53;19.50;;;3.20;90.30;;;;;;5041867;28;20225;-68
2020/12/18 07:48:37;;;;;;;37.92;18.50;;;3.20;90.30;;;;;;5050145;28;20021;-68
2020/12/18 07:51:20;;;;;;;37.08;17.95;;;3.10;90.30;;;;;;5045959;28;20020;-67
2020/12/18 07:53:53;;;;;;;33.90;15.38;;;3.10;90.50;;;;;;5037087;28;20547;-68
2020/12/18 07:56:23;;;;;;;31.10;15.45;;;3.10;90.70;;;;;;5031439;28;20460;-68
2020/12/18 07:58:57;;;;;;;34.30;16.65;;;3.20;90.60;;;;;;5040321;28;20100;-67
2020/12/18 08:01:30;;;;;;;39.10;18.05;;;3.20;90.40;;;;;;5045097;28;20049;-68
2020/12/18 08:04:04;;;;;;;39.65;18.65;;;3.20;90.20;;;;;;5039147;28;20029;-68
2020/12/18 08:06:37;;;;;;;38.53;18.05;;;3.10;90.20;;;;;;5045449;28;20041;-67
2020/12/18 08:09:06;;;;;;;43.05;18.98;;;3.10;90.20;;;;;;5041757;28;20017;-66
2020/12/18 08:11:42;;;;;;;45.97;21.10;;;3.10;90.10;;;;;;5052969;28;20036;-68
2020/12/18 08:14:09;;;;;;;44.03;21.55;;;3.10;90.00;;;;;;5054256;28;20029;-68
2020/12/18 08:16:35;;;;;;;32.25;15.88;;;3.10;90.20;;;;;;5052866;28;20049;-68
2020/12/18 08:19:11;;;;;;;29.70;14.95;;;3.20;90.30;;;;;;5052837;28;20071;-68
2020/12/18 08:21:42;;;;;;;29.88;14.40;;;3.20;90.00;;;;;;5053808;28;20031;-66
2020/12/18 08:24:23;;;;;;;27.30;13.13;;;3.10;89.30;;;;;;5052314;28;20119;-67
2020/12/18 08:27:01;;;;;;;22.92;11.93;;;3.10;89.10;;;;;;5039029;28;20024;-68
2020/12/18 08:29:31;;;;;;;20.35;10.13;;;3.10;88.90;;;;;;5053633;28;20116;-67
2020/12/18 08:31:58;;;;;;;23.88;11.88;;;3.10;88.80;;;;;;5040069;28;20467;-67
2020/12/18 08:34:29;;;;;;;25.83;11.70;;;3.00;88.80;;;;;;5053524;28;20475;-68
2020/12/18 08:36:55;;;;;;;23.42;12.75;;;3.10;89.10;;;;;;5053857;28;20071;-65
2020/12/18 08:39:21;;;;;;;26.17;12.90;;;3.10;89.40;;;;;;5052088;28;20025;-68
2020/12/18 08:41:52;;;;;;;29.08;15.50;;;3.20;89.60;;;;;;5051527;28;20053;-67
2020/12/18 08:44:28;;;;;;;25.27;12.45;;;3.20;89.40;;;;;;5052288;28;20037;-67
2020/12/18 08:46:56;;;;;;;20.33;10.30;;;3.20;89.10;;;;;;5052418;28;20383;-67
2020/12/18 08:49:27;;;;;;;22.17;10.45;;;3.20;88.10;;;;;;5053155;28;20013;-67
2020/12/18 08:51:55;;;;;;;46.60;23.35;;;3.20;87.80;;;;;;5051953;28;20025;-67
2020/12/18 08:54:26;;;;;;;27.52;14.45;;;3.10;87.80;;;;;;5051915;28;20120;-67
2020/12/18 08:57:13;;;;;;;33.47;16.90;;;3.00;87.70;;;;;;5053008;28;20028;-68
2020/12/18 08:59:39;;;;;;;;;;;3.00;87.70;;;;;;5051962;28;20024;-67
2020/12/18 09:02:14;;;;;;;30.95;17.05;;;3.00;87.80;;;;;;5053127;28;20012;-68
2020/12/18 09:04:40;;;;;;;23.38;10.55;;;2.90;88.10;;;;;;5052202;28;20128;-68
2020/12/18 09:07:05;;;;;;;23.77;12.15;;;2.90;88.30;;;;;;5051723;28;20120;-66
2020/12/18 09:09:31;;;;;;;29.13;13.90;;;3.00;88.10;;;;;;5051734;28;20158;-68
2020/12/18 09:12:14;;;;;;;206.18;75.28;;;3.00;88.20;;;;;;5053047;28;20029;-68
2020/12/18 09:14:39;;;;;;;70.90;25.25;;;3.00;88.30;;;;;;5053107;28;20116;-67
2020/12/18 09:17:05;;;;;;;60.42;22.00;;;3.00;88.00;;;;;;5053416;28;20478;-68
2020/12/18 09:19:33;;;;;;;28.88;14.05;;;3.00;88.40;;;;;;5052535;28;20029;-68
2020/12/18 09:22:05;;;;;;;25.73;12.35;;;3.10;88.40;;;;;;5053062;28;20028;-68
2020/12/18 09:24:31;;;;;;;25.67;12.35;;;3.20;88.30;;;;;;5052596;28;20071;-68
2020/12/18 09:27:16;;;;;;;27.75;12.68;;;3.20;87.90;;;;;;5052889;28;20478;-67
2020/12/18 09:29:41;;;;;;;25.02;12.88;;;3.10;87.50;;;;;;5051334;28;20048;-67
2020/12/18 09:32:07;;;;;;;27.08;12.93;;;3.10;86.90;;;;;;5051533;28;20056;-67
2020/12/18 09:34:33;;;;;;;26.25;13.52;;;3.10;87.20;;;;;;5052776;28;20113;-67
2020/12/18 09:37:12;;;;;;;29.92;13.57;;;3.00;86.80;;;;;;5051045;28;20032;-67
2020/12/18 09:39:37;;;;;;;27.05;13.05;;;3.00;87.30;;;;;;5046531;28;20150;-68
2020/12/18 09:42:03;;;;;;;30.42;14.10;;;3.00;87.30;;;;;;5051451;28;20118;-68
2020/12/18 09:44:29;;;;;;;28.75;13.68;;;3.00;87.10;;;;;;5051532;28;20021;-67
2020/12/18 09:46:55;;;;;;;26.40;13.75;;;3.00;87.70;;;;;;5052535;28;20055;-67
2020/12/18 09:49:20;;;;;;;27.85;13.80;;;3.00;87.30;;;;;;5052536;28;20029;-67
2020/12/18 09:51:46;;;;;;;31.05;14.88;;;3.00;86.90;;;;;;5053873;28;20032;-67
2020/12/18 09:54:12;;;;;;;39.63;19.42;;;2.90;86.60;;;;;;5055537;28;20025;-67
2020/12/18 09:56:38;;;;;;;45.28;20.52;;;2.80;86.50;;;;;;5056627;28;20159;-67
2020/12/18 09:59:04;;;;;;;39.63;19.30;;;2.80;87.10;;;;;;5055493;28;20025;-68
2020/12/18 10:01:29;;;;;;;37.25;19.23;;;2.90;87.50;;;;;;5054781;28;20083;-67
2020/12/18 10:03:55;;;;;;;33.17;14.98;;;2.90;87.80;;;;;;5055015;28;20100;-67
2020/12/18 10:06:25;;;;;;;37.58;18.25;;;3.00;87.60;;;;;;5056461;28;20413;-68
2020/12/18 10:08:51;;;;;;;39.80;18.98;;;3.00;87.40;;;;;;5055007;28;20021;-67
2020/12/18 10:11:17;;;;;;;39.72;19.33;;;3.00;87.60;;;;;;5054948;28;20459;-66
2020/12/18 10:13:43;;;;;;;42.47;22.52;;;3.00;87.80;;;;;;5054869;28;20447;-67
2020/12/18 10:16:09;;;;;;;42.05;19.45;;;3.10;87.80;;;;;;5056374;28;20040;-67
2020/12/18 10:18:35;;;;;;;37.17;17.48;;;3.00;87.10;;;;;;5056127;28;20415;-66
2020/12/18 10:21:03;;;;;;;35.97;17.42;;;3.00;87.10;;;;;;5055075;28;20029;-67
2020/12/18 10:23:29;;;;;;;31.98;16.15;;;3.10;87.60;;;;;;5056034;28;20406;-67
2020/12/18 10:25:56;;;;;;;28.67;13.25;;;3.10;87.30;;;;;;5055136;28;20029;-67
2020/12/18 10:28:21;;;;;;;27.67;14.85;;;3.00;86.70;;;;;;5054616;28;20025;-68
2020/12/18 10:30:47;;;;;;;30.27;14.70;;;3.00;86.80;;;;;;5054808;28;20387;-67
2020/12/18 10:33:13;;;;;;;29.77;14.38;;;3.00;87.00;;;;;;5055906;28;20025;-68
2020/12/18 10:35:38;;;;;;;29.50;15.15;;;3.00;87.20;;;;;;5055909;28;20071;-68
2020/12/18 10:38:04;;;;;;;28.35;13.88;;;3.00;86.50;;;;;;5054596;28;20063;-68
2020/12/18 10:40:32;;;;;;;25.90;13.50;;;3.00;86.40;;;;;;5054424;28;20032;-67
2020/12/18 10:42:57;;;;;;;30.00;15.07;;;2.90;86.30;;;;;;5055791;28;20035;-67
2020/12/18 10:45:23;;;;;;;26.23;13.13;;;2.90;86.70;;;;;;5055629;28;20029;-67
2020/12/18 10:47:49;;;;;;;28.08;12.90;;;2.90;86.70;;;;;;5054055;28;20087;-67
2020/12/18 10:50:14;;;;;;;32.03;14.95;;;2.80;86.60;;;;;;5054667;28;20029;-68
2020/12/18 10:52:40;;;;;;;44.83;19.85;;;2.80;86.60;;;;;;5055711;28;20041;-67
2020/12/18 10:55:06;;;;;;;35.15;15.60;;;2.80;86.80;;;;;;5054449;28;20025;-67
2020/12/18 10:57:31;;;;;;;47.47;21.90;;;2.80;87.50;;;;;;5047021;28;20116;-67
2020/12/18 10:59:57;;;;;;;57.00;24.85;;;2.80;87.00;;;;;;5048635;28;20055;-67
2020/12/18 11:02:23;;;;;;;55.78;25.25;;;2.80;86.60;;;;;;5053558;28;20063;-67
2020/12/18 11:04:49;;;;;;;83.40;35.25;;;2.80;86.70;;;;;;5054437;28;20083;-67
2020/12/18 11:07:14;;;;;;;67.72;30.88;;;2.80;87.00;;;;;;5055449;28;20056;-68
2020/12/18 11:09:40;;;;;;;67.65;30.38;;;2.90;87.40;;;;;;5053837;28;20063;-67
2020/12/18 11:12:06;;;;;;;43.83;21.00;;;3.00;87.70;;;;;;5055336;28;20469;-67
2020/12/18 11:14:32;;;;;;;40.08;18.98;;;3.00;87.60;;;;;;5055326;28;20459;-67
2020/12/18 11:16:57;;;;;;;35.67;18.35;;;3.00;87.30;;;;;;5054943;28;20029;-68
2020/12/18 11:19:23;;;;;;;36.67;18.77;;;3.00;87.30;;;;;;5054973;28;20029;-67
2020/12/18 11:21:50;;;;;;;42.40;18.20;;;2.90;87.30;;;;;;5053956;28;20025;-67
2020/12/18 11:24:15;;;;;;;47.08;21.25;;;3.00;87.40;;;;;;5055018;28;20443;-68
2020/12/18 11:26:42;;;;;;;40.17;17.48;;;3.00;87.30;;;;;;5054983;28;20075;-68
2020/12/18 11:29:08;;;;;;;39.83;19.20;;;3.10;87.40;;;;;;5053685;28;20029;-67
2020/12/18 11:31:40;;;;;;;35.42;17.15;;;3.20;87.20;;;;;;5054563;28;20021;-67
2020/12/18 11:34:06;;;;;;;40.60;18.63;;;3.20;87.10;;;;;;5053714;28;20497;-68
2020/12/18 11:36:34;;;;;;;40.92;18.98;;;3.20;87.00;;;;;;5054685;28;20025;-67
2020/12/18 11:39:00;;;;;;;53.88;24.25;;;3.20;87.00;;;;;;5053644;28;20416;-67
2020/12/18 11:41:26;;;;;;;49.70;23.20;;;3.30;86.80;;;;;;5053258;28;20028;-67
2020/12/18 11:43:51;;;;;;;50.20;22.77;;;3.10;86.60;;;;;;5053191;28;20387;-67
2020/12/18 11:46:17;;;;;;;36.72;16.88;;;3.10;86.80;;;;;;5053235;28;20037;-68
2020/12/18 11:48:43;;;;;;;31.08;15.93;;;3.10;87.10;;;;;;5053257;28;20463;-68
2020/12/18 11:51:08;;;;;;;33.42;16.02;;;3.20;87.30;;;;;;5053331;28;20116;-66
2020/12/18 11:53:38;;;;;;;35.33;16.95;;;3.20;86.90;;;;;;5051577;28;20033;-67
2020/12/18 11:56:04;;;;;;;32.95;16.98;;;3.20;86.60;;;;;;5043380;28;20025;-67
2020/12/18 11:58:30;;;;;;;35.15;17.08;;;3.20;86.70;;;;;;5054139;28;20055;-68
2020/12/18 12:00:57;;;;;;;35.83;18.55;;;3.20;86.60;;;;;;5054318;28;20056;-67
2020/12/18 12:03:25;;;;;;;35.35;18.77;;;3.10;86.30;;;;;;5054171;28;20048;-67
2020/12/18 12:05:54;;;;;;;50.53;23.10;;;3.10;86.70;;;;;;5052731;28;20080;-67
2020/12/18 12:08:20;;;;;;;62.63;25.70;;;3.10;86.60;;;;;;5052842;28;20116;-67
2020/12/18 12:10:46;;;;;;;64.85;26.00;;;3.10;86.60;;;;;;5053520;28;20361;-68
2020/12/18 12:13:12;;;;;;;53.20;24.92;;;3.10;86.90;;;;;;5052646;28;20028;-68
2020/12/18 12:15:37;;;;;;;62.83;27.10;;;3.20;87.10;;;;;;5052348;28;20375;-67
2020/12/18 12:18:04;;;;;;;76.65;31.52;;;3.20;87.10;;;;;;5052639;28;20048;-66
2020/12/18 12:20:30;;;;;;;43.92;21.17;;;3.20;86.80;;;;;;5052649;28;20493;-67
2020/12/18 12:22:56;;;;;;;36.72;18.25;;;3.30;86.70;;;;;;5053574;28;20036;-67
2020/12/18 12:25:21;;;;;;;27.13;14.30;;;3.30;86.70;;;;;;5052355;28;20021;-67
2020/12/18 12:27:47;;;;;;;28.60;14.13;;;3.30;86.60;;;;;;5052490;28;20029;-67
2020/12/18 12:30:13;;;;;;;25.80;13.40;;;3.30;86.40;;;;;;5053894;28;20024;-68
2020/12/18 12:32:39;;;;;;;25.88;13.05;;;3.30;86.40;;;;;;5052626;28;20109;-68
2020/12/18 12:35:05;;;;;;;30.42;14.80;;;3.30;86.50;;;;;;5052362;28;20112;-68
2020/12/18 12:37:31;;;;;;;28.48;15.00;;;3.30;86.50;;;;;;5051852;28;20063;-67
2020/12/18 12:39:57;;;;;;;28.48;14.65;;;3.30;86.50;;;;;;5051533;28;20431;-67